sensor_id;sensor_type;location;lat;lon;timestamp;temperature;humidity
13091;DHT22;6611;52.604;13.438;2024-01-30T00:04:29;1.26;78.28
13091;DHT22;6611;52.604;13.438;2024-01-30T00:09:31;1.17;78.60
13091;DHT22;6611;52.604;13.438;2024-01-30T00:14:32;1.17;78.66
13091;DHT22;6611;52.604;13.438;2024-01-30T00:19:35;1.08;78.80
13091;DHT22;6611;52.604;13.438;2024-01-30T00:24:37;1.05;79.04
13091;DHT22;6611;52.604;13.438;2024-01-30T00:29:38;1.00;78.99
13091;DHT22;6611;52.604;13.438;2024-01-30T00:34:42;1.00;78.82
13091;DHT22;6611;52.604;13.438;2024-01-30T00:39:43;0.96;79.18
13091;DHT22;6611;52.604;13.438;2024-01-30T00:44:45;0.89;79.23
13091;DHT22;6611;52.604;13.438;2024-01-30T00:49:48;0.93;79.04
13091;DHT22;6611;52.604;13.438;2024-01-30T00:54:50;0.87;79.16
13091;DHT22;6611;52.604;13.438;2024-01-30T00:59:51;0.82;79.63
13091;DHT22;6611;52.604;13.438;2024-01-30T01:04:54;0.92;79.34
13091;DHT22;6611;52.604;13.438;2024-01-30T01:09:56;0.87;79.49
13091;DHT22;6611;52.604;13.438;2024-01-30T01:14:57;0.82;79.65
13091;DHT22;6611;52.604;13.438;2024-01-30T01:20:00;0.83;79.66
13091;DHT22;6611;52.604;13.438;2024-01-30T01:25:02;0.89;79.71
13091;DHT22;6611;52.604;13.438;2024-01-30T01:30:09;0.83;79.89
13091;DHT22;6611;52.604;13.438;2024-01-30T01:35:13;0.82;79.75
13091;DHT22;6611;52.604;13.438;2024-01-30T01:40:15;0.82;79.80
13091;DHT22;6611;52.604;13.438;2024-01-30T01:45:16;0.76;79.76
13091;DHT22;6611;52.604;13.438;2024-01-30T01:50:20;0.80;79.72
13091;DHT22;6611;52.604;13.438;2024-01-30T01:55:22;0.78;79.95
13091;DHT22;6611;52.604;13.438;2024-01-30T02:00:26;0.80;79.91
13091;DHT22;6611;52.604;13.438;2024-01-30T02:05:30;0.75;80.08
13091;DHT22;6611;52.604;13.438;2024-01-30T02:10:32;0.66;80.26
13091;DHT22;6611;52.604;13.438;2024-01-30T02:15:33;0.64;80.29
13091;DHT22;6611;52.604;13.438;2024-01-30T02:20:37;0.65;80.17
13091;DHT22;6611;52.604;13.438;2024-01-30T02:25:41;0.70;79.97
13091;DHT22;6611;52.604;13.438;2024-01-30T02:30:45;0.69;80.36
13091;DHT22;6611;52.604;13.438;2024-01-30T02:35:47;0.73;80.41
13091;DHT22;6611;52.604;13.438;2024-01-30T02:40:50;0.79;80.14
13091;DHT22;6611;52.604;13.438;2024-01-30T02:45:51;0.75;80.40
13091;DHT22;6611;52.604;13.438;2024-01-30T02:50:53;0.73;80.15
13091;DHT22;6611;52.604;13.438;2024-01-30T02:55:56;0.72;80.45
13091;DHT22;6611;52.604;13.438;2024-01-30T03:00:58;0.69;80.31
13091;DHT22;6611;52.604;13.438;2024-01-30T03:06:00;0.69;80.36
13091;DHT22;6611;52.604;13.438;2024-01-30T03:11:03;0.69;80.36
13091;DHT22;6611;52.604;13.438;2024-01-30T03:16:06;0.62;80.30
13091;DHT22;6611;52.604;13.438;2024-01-30T03:21:08;0.57;80.44
13091;DHT22;6611;52.604;13.438;2024-01-30T03:26:11;0.59;80.52
13091;DHT22;6611;52.604;13.438;2024-01-30T03:31:14;0.57;80.40
13091;DHT22;6611;52.604;13.438;2024-01-30T03:36:16;0.58;80.48
13091;DHT22;6611;52.604;13.438;2024-01-30T03:41:19;0.57;80.51
13091;DHT22;6611;52.604;13.438;2024-01-30T03:46:21;0.54;80.45
13091;DHT22;6611;52.604;13.438;2024-01-30T03:51:22;0.51;80.72
13091;DHT22;6611;52.604;13.438;2024-01-30T03:56:25;0.55;80.71
13091;DHT22;6611;52.604;13.438;2024-01-30T04:01:27;0.52;80.70
13091;DHT22;6611;52.604;13.438;2024-01-30T04:06:28;0.55;80.78
13091;DHT22;6611;52.604;13.438;2024-01-30T04:11:31;0.58;80.53
13091;DHT22;6611;52.604;13.438;2024-01-30T04:16:33;0.58;80.72
13091;DHT22;6611;52.604;13.438;2024-01-30T04:21:35;0.59;80.80
13091;DHT22;6611;52.604;13.438;2024-01-30T04:26:38;0.58;80.97
13091;DHT22;6611;52.604;13.438;2024-01-30T04:31:39;0.55;80.96
13091;DHT22;6611;52.604;13.438;2024-01-30T04:36:44;0.55;80.98
13091;DHT22;6611;52.604;13.438;2024-01-30T04:41:47;0.50;81.19
13091;DHT22;6611;52.604;13.438;2024-01-30T04:46:48;0.51;81.15
13091;DHT22;6611;52.604;13.438;2024-01-30T04:51:50;0.54;80.97
13091;DHT22;6611;52.604;13.438;2024-01-30T04:56:53;0.55;80.96
13091;DHT22;6611;52.604;13.438;2024-01-30T05:01:55;0.44;81.05
13091;DHT22;6611;52.604;13.438;2024-01-30T05:06:56;0.50;81.17
13091;DHT22;6611;52.604;13.438;2024-01-30T05:11:59;0.57;81.04
13091;DHT22;6611;52.604;13.438;2024-01-30T05:17:01;0.55;81.17
13091;DHT22;6611;52.604;13.438;2024-01-30T05:22:03;0.59;80.80
13091;DHT22;6611;52.604;13.438;2024-01-30T05:27:06;0.51;80.86
13091;DHT22;6611;52.604;13.438;2024-01-30T05:32:08;0.52;81.10
13091;DHT22;6611;52.604;13.438;2024-01-30T05:37:11;0.50;81.31
13091;DHT22;6611;52.604;13.438;2024-01-30T05:42:16;0.50;81.13
13091;DHT22;6611;52.604;13.438;2024-01-30T05:47:17;0.41;81.48
13091;DHT22;6611;52.604;13.438;2024-01-30T05:52:19;0.42;81.34
13091;DHT22;6611;52.604;13.438;2024-01-30T05:57:22;0.33;81.71
13091;DHT22;6611;52.604;13.438;2024-01-30T06:02:24;0.37;81.79
13091;DHT22;6611;52.604;13.438;2024-01-30T06:07:25;0.42;81.63
13091;DHT22;6611;52.604;13.438;2024-01-30T06:12:28;0.38;81.63
13091;DHT22;6611;52.604;13.438;2024-01-30T06:17:30;0.44;81.65
13091;DHT22;6611;52.604;13.438;2024-01-30T06:22:32;0.41;81.46
13091;DHT22;6611;52.604;13.438;2024-01-30T06:27:35;0.45;81.53
13091;DHT22;6611;52.604;13.438;2024-01-30T06:32:36;0.51;81.44
13091;DHT22;6611;52.604;13.438;2024-01-30T06:37:39;0.52;81.39
13091;DHT22;6611;52.604;13.438;2024-01-30T06:42:42;0.41;81.45
13091;DHT22;6611;52.604;13.438;2024-01-30T06:47:43;0.42;81.50
13091;DHT22;6611;52.604;13.438;2024-01-30T06:52:45;0.44;81.93
13091;DHT22;6611;52.604;13.438;2024-01-30T06:57:48;0.45;81.86
13091;DHT22;6611;52.604;13.438;2024-01-30T07:02:49;0.52;81.85
13091;DHT22;6611;52.604;13.438;2024-01-30T07:07:51;0.51;81.91
13091;DHT22;6611;52.604;13.438;2024-01-30T07:12:54;0.54;81.73
13091;DHT22;6611;52.604;13.438;2024-01-30T07:17:56;0.58;82.11
13091;DHT22;6611;52.604;13.438;2024-01-30T07:22:57;0.72;82.05
13091;DHT22;6611;52.604;13.438;2024-01-30T07:28:00;0.82;82.07
13091;DHT22;6611;52.604;13.438;2024-01-30T07:33:02;0.86;81.62
13091;DHT22;6611;52.604;13.438;2024-01-30T07:38:04;0.99;81.81
13091;DHT22;6611;52.604;13.438;2024-01-30T07:43:07;1.19;81.96
13091;DHT22;6611;52.604;13.438;2024-01-30T07:48:08;1.55;81.05
13091;DHT22;6611;52.604;13.438;2024-01-30T07:53:10;1.89;80.19
13091;DHT22;6611;52.604;13.438;2024-01-30T07:58:13;2.20;79.84
13091;DHT22;6611;52.604;13.438;2024-01-30T08:03:15;2.28;79.67
13091;DHT22;6611;52.604;13.438;2024-01-30T08:08:18;2.53;78.80
13091;DHT22;6611;52.604;13.438;2024-01-30T08:13:21;2.72;78.41
13091;DHT22;6611;52.604;13.438;2024-01-30T08:18:23;2.90;77.94
13091;DHT22;6611;52.604;13.438;2024-01-30T08:23:24;3.09;77.10
13091;DHT22;6611;52.604;13.438;2024-01-30T08:28:27;3.35;76.31
13091;DHT22;6611;52.604;13.438;2024-01-30T08:33:29;3.51;75.63
13091;DHT22;6611;52.604;13.438;2024-01-30T08:38:31;3.76;74.84
13091;DHT22;6611;52.604;13.438;2024-01-30T08:43:34;3.88;74.92
13091;DHT22;6611;52.604;13.438;2024-01-30T08:48:36;3.95;74.60
13091;DHT22;6611;52.604;13.438;2024-01-30T08:53:38;4.04;73.99
13091;DHT22;6611;52.604;13.438;2024-01-30T08:58:42;4.16;74.16
13091;DHT22;6611;52.604;13.438;2024-01-30T09:03:43;4.38;73.32
13091;DHT22;6611;52.604;13.438;2024-01-30T09:08:47;4.50;73.32
13091;DHT22;6611;52.604;13.438;2024-01-30T09:13:50;4.76;72.56
13091;DHT22;6611;52.604;13.438;2024-01-30T09:18:51;5.16;71.61
13091;DHT22;6611;52.604;13.438;2024-01-30T09:23:54;5.43;70.30
13091;DHT22;6611;52.604;13.438;2024-01-30T09:28:57;5.70;70.48
13091;DHT22;6611;52.604;13.438;2024-01-30T09:33:59;5.97;69.96
13091;DHT22;6611;52.604;13.438;2024-01-30T09:39:00;6.19;68.08
13091;DHT22;6611;52.604;13.438;2024-01-30T09:44:05;6.36;67.61
13091;DHT22;6611;52.604;13.438;2024-01-30T09:49:09;6.44;67.54
13091;DHT22;6611;52.604;13.438;2024-01-30T09:54:13;6.32;65.74
13091;DHT22;6611;52.604;13.438;2024-01-30T09:59:16;6.32;65.44
13091;DHT22;6611;52.604;13.438;2024-01-30T10:04:18;6.55;64.94
13091;DHT22;6611;52.604;13.438;2024-01-30T10:09:20;6.71;63.69
13091;DHT22;6611;52.604;13.438;2024-01-30T10:14:23;6.78;64.50
13091;DHT22;6611;52.604;13.438;2024-01-30T10:19:25;6.78;63.09
13091;DHT22;6611;52.604;13.438;2024-01-30T10:24:27;6.88;63.12
13091;DHT22;6611;52.604;13.438;2024-01-30T10:29:31;7.00;62.55
13091;DHT22;6611;52.604;13.438;2024-01-30T10:34:34;7.16;61.84
13091;DHT22;6611;52.604;13.438;2024-01-30T10:39:38;7.06;61.62
13091;DHT22;6611;52.604;13.438;2024-01-30T10:44:56;7.24;61.67
13091;DHT22;6611;52.604;13.438;2024-01-30T10:49:59;7.31;60.22
13091;DHT22;6611;52.604;13.438;2024-01-30T10:55:03;7.44;59.20
13091;DHT22;6611;52.604;13.438;2024-01-30T11:00:10;7.93;58.07
13091;DHT22;6611;52.604;13.438;2024-01-30T11:05:13;7.95;57.99
13091;DHT22;6611;52.604;13.438;2024-01-30T11:10:15;8.12;57.80
13091;DHT22;6611;52.604;13.438;2024-01-30T11:15:18;8.16;58.08
13091;DHT22;6611;52.604;13.438;2024-01-30T11:20:23;8.19;57.00
13091;DHT22;6611;52.604;13.438;2024-01-30T11:25:26;8.07;57.21
13091;DHT22;6611;52.604;13.438;2024-01-30T11:30:31;8.34;57.11
13091;DHT22;6611;52.604;13.438;2024-01-30T11:35:34;8.62;57.09
13091;DHT22;6611;52.604;13.438;2024-01-30T11:40:38;8.96;55.48
13091;DHT22;6611;52.604;13.438;2024-01-30T11:45:41;9.01;55.14
13091;DHT22;6611;52.604;13.438;2024-01-30T11:50:44;8.83;56.44
13091;DHT22;6611;52.604;13.438;2024-01-30T11:55:49;8.73;55.43
13091;DHT22;6611;52.604;13.438;2024-01-30T12:00:56;8.73;55.81
13091;DHT22;6611;52.604;13.438;2024-01-30T12:05:58;8.86;56.09
13091;DHT22;6611;52.604;13.438;2024-01-30T12:11:01;8.92;56.12
13091;DHT22;6611;52.604;13.438;2024-01-30T12:16:07;8.77;56.27
13091;DHT22;6611;52.604;13.438;2024-01-30T12:21:08;8.80;56.20
13091;DHT22;6611;52.604;13.438;2024-01-30T12:26:10;8.94;56.03
13091;DHT22;6611;52.604;13.438;2024-01-30T12:31:13;9.09;56.23
13091;DHT22;6611;52.604;13.438;2024-01-30T12:36:16;9.18;55.03
13091;DHT22;6611;52.604;13.438;2024-01-30T12:41:19;9.01;56.40
13091;DHT22;6611;52.604;13.438;2024-01-30T12:46:25;8.94;56.75
13091;DHT22;6611;52.604;13.438;2024-01-30T12:51:27;8.92;56.21
13091;DHT22;6611;52.604;13.438;2024-01-30T12:56:28;8.93;56.76
13091;DHT22;6611;52.604;13.438;2024-01-30T13:01:31;8.99;57.02
13091;DHT22;6611;52.604;13.438;2024-01-30T13:06:33;8.84;57.14
13091;DHT22;6611;52.604;13.438;2024-01-30T13:11:35;8.87;57.73
13091;DHT22;6611;52.604;13.438;2024-01-30T13:16:38;8.77;58.00
13091;DHT22;6611;52.604;13.438;2024-01-30T13:21:40;8.65;58.20
13091;DHT22;6611;52.604;13.438;2024-01-30T13:26:42;8.73;58.20
13091;DHT22;6611;52.604;13.438;2024-01-30T13:31:45;8.58;58.97
13091;DHT22;6611;52.604;13.438;2024-01-30T13:36:47;8.42;59.25
13091;DHT22;6611;52.604;13.438;2024-01-30T13:41:49;8.54;59.03
13091;DHT22;6611;52.604;13.438;2024-01-30T13:46:52;8.55;60.27
13091;DHT22;6611;52.604;13.438;2024-01-30T13:51:55;8.54;59.92
13091;DHT22;6611;52.604;13.438;2024-01-30T13:56:57;8.58;59.86
13091;DHT22;6611;52.604;13.438;2024-01-30T14:02:00;8.61;59.78
13091;DHT22;6611;52.604;13.438;2024-01-30T14:07:02;8.72;59.67
13091;DHT22;6611;52.604;13.438;2024-01-30T14:12:04;8.58;60.12
13091;DHT22;6611;52.604;13.438;2024-01-30T14:17:07;8.57;60.56
13091;DHT22;6611;52.604;13.438;2024-01-30T14:22:09;8.48;60.81
13091;DHT22;6611;52.604;13.438;2024-01-30T14:27:10;8.42;61.45
13091;DHT22;6611;52.604;13.438;2024-01-30T14:32:14;8.38;61.76
13091;DHT22;6611;52.604;13.438;2024-01-30T14:37:15;8.36;61.90
13091;DHT22;6611;52.604;13.438;2024-01-30T14:42:17;8.34;62.37
13091;DHT22;6611;52.604;13.438;2024-01-30T14:47:20;8.31;62.92
13091;DHT22;6611;52.604;13.438;2024-01-30T14:52:22;8.29;62.31
13091;DHT22;6611;52.604;13.438;2024-01-30T14:57:24;8.33;62.37
13091;DHT22;6611;52.604;13.438;2024-01-30T15:02:27;8.19;63.11
13091;DHT22;6611;52.604;13.438;2024-01-30T15:07:29;8.16;63.37
13091;DHT22;6611;52.604;13.438;2024-01-30T15:12:30;8.12;63.61
13091;DHT22;6611;52.604;13.438;2024-01-30T15:17:33;8.00;63.76
13091;DHT22;6611;52.604;13.438;2024-01-30T15:22:35;7.97;64.48
13091;DHT22;6611;52.604;13.438;2024-01-30T15:27:40;7.92;64.78
13091;DHT22;6611;52.604;13.438;2024-01-30T15:32:43;7.89;64.93
13091;DHT22;6611;52.604;13.438;2024-01-30T15:37:45;7.74;65.63
13091;DHT22;6611;52.604;13.438;2024-01-30T15:42:47;7.67;66.03
13091;DHT22;6611;52.604;13.438;2024-01-30T15:47:50;7.54;66.54
13091;DHT22;6611;52.604;13.438;2024-01-30T15:52:52;7.51;66.97
13091;DHT22;6611;52.604;13.438;2024-01-30T15:57:53;7.44;67.18
13091;DHT22;6611;52.604;13.438;2024-01-30T16:02:57;7.46;67.14
13091;DHT22;6611;52.604;13.438;2024-01-30T16:07:59;7.35;67.64
13091;DHT22;6611;52.604;13.438;2024-01-30T16:13:00;7.26;67.81
13091;DHT22;6611;52.604;13.438;2024-01-30T16:18:04;7.26;68.08
13091;DHT22;6611;52.604;13.438;2024-01-30T16:23:05;7.15;68.69
13091;DHT22;6611;52.604;13.438;2024-01-30T16:28:07;7.06;68.95
13091;DHT22;6611;52.604;13.438;2024-01-30T16:33:10;7.00;69.50
13091;DHT22;6611;52.604;13.438;2024-01-30T16:38:12;6.93;69.89
13091;DHT22;6611;52.604;13.438;2024-01-30T16:43:14;6.93;69.80
13091;DHT22;6611;52.604;13.438;2024-01-30T16:48:17;6.99;69.81
13091;DHT22;6611;52.604;13.438;2024-01-30T16:53:20;6.98;70.31
13091;DHT22;6611;52.604;13.438;2024-01-30T16:58:22;6.93;70.04
13091;DHT22;6611;52.604;13.438;2024-01-30T17:03:25;7.07;69.95
13091;DHT22;6611;52.604;13.438;2024-01-30T17:08:27;7.13;69.90
13091;DHT22;6611;52.604;13.438;2024-01-30T17:13:29;7.19;69.72
13091;DHT22;6611;52.604;13.438;2024-01-30T17:18:33;7.26;69.80
13091;DHT22;6611;52.604;13.438;2024-01-30T17:23:35;7.28;69.81
13091;DHT22;6611;52.604;13.438;2024-01-30T17:28:39;7.27;69.94
13091;DHT22;6611;52.604;13.438;2024-01-30T17:33:43;7.16;70.66
13091;DHT22;6611;52.604;13.438;2024-01-30T17:38:45;7.20;70.70
13091;DHT22;6611;52.604;13.438;2024-01-30T17:43:47;7.22;70.80
13091;DHT22;6611;52.604;13.438;2024-01-30T17:48:50;7.20;71.13
13091;DHT22;6611;52.604;13.438;2024-01-30T17:53:52;7.26;71.26
13091;DHT22;6611;52.604;13.438;2024-01-30T17:58:53;7.44;70.93
13091;DHT22;6611;52.604;13.438;2024-01-30T18:03:56;7.51;71.27
13091;DHT22;6611;52.604;13.438;2024-01-30T18:08:58;7.72;70.52
13091;DHT22;6611;52.604;13.438;2024-01-30T18:14:00;7.75;70.64
13091;DHT22;6611;52.604;13.438;2024-01-30T18:19:03;7.82;70.63
13091;DHT22;6611;52.604;13.438;2024-01-30T18:24:05;7.85;70.66
13091;DHT22;6611;52.604;13.438;2024-01-30T18:29:06;7.93;70.49
13091;DHT22;6611;52.604;13.438;2024-01-30T18:34:10;7.93;70.53
13091;DHT22;6611;52.604;13.438;2024-01-30T18:39:11;7.92;70.81
13091;DHT22;6611;52.604;13.438;2024-01-30T18:44:13;7.99;70.97
13091;DHT22;6611;52.604;13.438;2024-01-30T18:49:16;8.20;70.59
13091;DHT22;6611;52.604;13.438;2024-01-30T18:54:19;8.21;70.72
13091;DHT22;6611;52.604;13.438;2024-01-30T18:59:21;8.40;70.33
13091;DHT22;6611;52.604;13.438;2024-01-30T19:04:24;8.49;70.18
13091;DHT22;6611;52.604;13.438;2024-01-30T19:09:25;8.49;70.37
13091;DHT22;6611;52.604;13.438;2024-01-30T19:14:27;8.54;70.46
13091;DHT22;6611;52.604;13.438;2024-01-30T19:19:32;8.52;70.64
13091;DHT22;6611;52.604;13.438;2024-01-30T19:24:34;8.61;70.48
13091;DHT22;6611;52.604;13.438;2024-01-30T19:29:35;8.59;70.52
13091;DHT22;6611;52.604;13.438;2024-01-30T19:34:38;8.58;70.72
13091;DHT22;6611;52.604;13.438;2024-01-30T19:39:41;8.52;71.18
13091;DHT22;6611;52.604;13.438;2024-01-30T19:44:44;8.58;71.24
13091;DHT22;6611;52.604;13.438;2024-01-30T19:49:47;8.59;71.37
13091;DHT22;6611;52.604;13.438;2024-01-30T19:54:49;8.61;71.66
13091;DHT22;6611;52.604;13.438;2024-01-30T19:59:50;8.59;71.89
13091;DHT22;6611;52.604;13.438;2024-01-30T20:04:53;8.61;71.84
13091;DHT22;6611;52.604;13.438;2024-01-30T20:09:55;8.64;71.64
13091;DHT22;6611;52.604;13.438;2024-01-30T20:14:56;8.62;71.70
13091;DHT22;6611;52.604;13.438;2024-01-30T20:19:59;8.59;71.93
13091;DHT22;6611;52.604;13.438;2024-01-30T20:25:01;8.65;71.89
13091;DHT22;6611;52.604;13.438;2024-01-30T20:30:04;8.61;72.05
13091;DHT22;6611;52.604;13.438;2024-01-30T20:35:08;8.58;72.30
13091;DHT22;6611;52.604;13.438;2024-01-30T20:40:10;8.72;72.14
13091;DHT22;6611;52.604;13.438;2024-01-30T20:45:12;8.82;72.04
13091;DHT22;6611;52.604;13.438;2024-01-30T20:50:16;8.82;72.14
13091;DHT22;6611;52.604;13.438;2024-01-30T20:55:18;8.84;72.14
13091;DHT22;6611;52.604;13.438;2024-01-30T21:00:20;8.93;71.93
13091;DHT22;6611;52.604;13.438;2024-01-30T21:05:23;8.93;72.18
13091;DHT22;6611;52.604;13.438;2024-01-30T21:10:25;8.86;72.29
13091;DHT22;6611;52.604;13.438;2024-01-30T21:15:26;8.79;72.61
13091;DHT22;6611;52.604;13.438;2024-01-30T21:20:30;8.64;73.11
13091;DHT22;6611;52.604;13.438;2024-01-30T21:25:31;8.57;73.47
13091;DHT22;6611;52.604;13.438;2024-01-30T21:30:33;8.54;73.78
13091;DHT22;6611;52.604;13.438;2024-01-30T21:35:36;8.62;73.76
13091;DHT22;6611;52.604;13.438;2024-01-30T21:40:37;8.48;74.49
13091;DHT22;6611;52.604;13.438;2024-01-30T21:45:40;8.47;74.98
13091;DHT22;6611;52.604;13.438;2024-01-30T21:50:43;8.45;75.26
13091;DHT22;6611;52.604;13.438;2024-01-30T21:55:45;8.55;75.07
13091;DHT22;6611;52.604;13.438;2024-01-30T22:00:47;8.58;75.09
13091;DHT22;6611;52.604;13.438;2024-01-30T22:05:50;8.59;75.43
13091;DHT22;6611;52.604;13.438;2024-01-30T22:10:52;8.68;75.42
13091;DHT22;6611;52.604;13.438;2024-01-30T22:15:53;8.71;75.64
13091;DHT22;6611;52.604;13.438;2024-01-30T22:20:56;8.92;74.83
13091;DHT22;6611;52.604;13.438;2024-01-30T22:25:58;8.84;75.03
13091;DHT22;6611;52.604;13.438;2024-01-30T22:31:02;8.89;74.99
13091;DHT22;6611;52.604;13.438;2024-01-30T22:36:05;8.97;75.35
13091;DHT22;6611;52.604;13.438;2024-01-30T22:41:08;9.10;75.40
13091;DHT22;6611;52.604;13.438;2024-01-30T22:46:09;9.06;75.67
13091;DHT22;6611;52.604;13.438;2024-01-30T22:51:13;8.99;76.12
13091;DHT22;6611;52.604;13.438;2024-01-30T22:56:14;8.96;76.10
13091;DHT22;6611;52.604;13.438;2024-01-30T23:01:16;9.06;76.06
13091;DHT22;6611;52.604;13.438;2024-01-30T23:06:19;9.07;75.87
13091;DHT22;6611;52.604;13.438;2024-01-30T23:11:21;8.93;76.33
13091;DHT22;6611;52.604;13.438;2024-01-30T23:16:22;8.87;76.46
13091;DHT22;6611;52.604;13.438;2024-01-30T23:21:25;8.90;76.43
13091;DHT22;6611;52.604;13.438;2024-01-30T23:26:28;8.80;76.77
13091;DHT22;6611;52.604;13.438;2024-01-30T23:31:30;8.73;76.84
13091;DHT22;6611;52.604;13.438;2024-01-30T23:36:39;8.65;77.20
13091;DHT22;6611;52.604;13.438;2024-01-30T23:41:41;8.61;77.27
13091;DHT22;6611;52.604;13.438;2024-01-30T23:46:43;8.68;77.11
13091;DHT22;6611;52.604;13.438;2024-01-30T23:51:46;8.77;76.57
13091;DHT22;6611;52.604;13.438;2024-01-30T23:56:48;8.92;75.94
